Time;durP1;ratioP1;P1;durP2;ratioP2;P2;SDS_P1;SDS_P2;PMS_P1;PMS_P2;Temp;Humidity;BMP_temperature;BMP_pressure;BME280_temperature;BME280_humidity;BME280_pressure;Samples;Min_cycle;Max_cycle;Signal;HPM_P1;HPM_P2
2022/03/15 00:01:29;;;;;;;9.98;4.25;;;7.70;91.00;;;;;;4909995;29;20036;-85
2022/03/15 00:03:54;;;;;;;6.28;3.75;;;7.70;90.60;;;;;;4909370;29;20092;-81
2022/03/15 00:06:20;;;;;;;9.13;4.40;;;7.70;90.20;;;;;;4909692;29;20032;-82
2022/03/15 00:08:48;;;;;;;8.70;4.65;;;7.80;90.40;;;;;;4909294;29;20028;-81
2022/03/15 00:11:13;;;;;;;7.13;4.07;;;7.80;90.80;;;;;;4909673;29;20087;-80
2022/03/15 00:13:39;;;;;;;7.97;4.03;;;7.80;90.60;;;;;;4909353;29;20016;-81
2022/03/15 00:16:10;;;;;;;7.78;4.07;;;7.80;90.60;;;;;;4909109;29;20083;-81
2022/03/15 00:18:56;;;;;;;10.15;4.85;;;7.70;91.20;;;;;;4909185;29;20091;-81
2022/03/15 00:21:22;;;;;;;8.60;4.47;;;7.70;91.50;;;;;;4909697;29;20043;-83
2022/03/15 00:23:48;;;;;;;7.68;4.30;;;7.60;91.60;;;;;;4909263;29;20103;-80
2022/03/15 00:26:14;;;;;;;8.15;4.20;;;7.50;91.80;;;;;;4909606;29;20134;-83
2022/03/15 00:28:58;;;;;;;6.30;3.72;;;7.50;91.30;;;;;;4924964;29;20365;-83
2022/03/15 00:31:25;;;;;;;8.18;4.20;;;7.40;91.00;;;;;;4907391;29;20032;-80
2022/03/15 00:33:54;;;;;;;9.38;4.00;;;7.50;91.00;;;;;;4908845;29;20031;-82
2022/03/15 00:39:50;;;;;;;9.82;4.28;;;7.50;90.90;;;;;;4905903;29;19907;-83
2022/03/15 00:42:18;;;;;;;10.00;4.60;;;7.50;91.00;;;;;;4890760;29;20036;-83
2022/03/15 00:44:44;;;;;;;8.52;5.20;;;7.50;91.60;;;;;;4890415;29;20024;-80
2022/03/15 00:47:16;;;;;;;7.97;4.30;;;7.40;92.00;;;;;;4899051;29;20033;-81
2022/03/15 00:49:45;;;;;;;9.77;4.82;;;7.30;91.60;;;;;;4899417;29;20020;-82
2022/03/15 00:52:26;;;;;;;9.10;4.60;;;7.30;92.20;;;;;;4904268;29;20029;-83
2022/03/15 00:54:52;;;;;;;11.95;4.70;;;7.30;91.70;;;;;;4970579;23;20044;-83
2022/03/15 00:57:23;;;;;;;10.57;4.85;;;7.30;91.80;;;;;;4931370;29;20036;-82
2022/03/15 00:59:51;;;;;;;7.40;4.28;;;7.30;91.80;;;;;;4924620;29;20301;-82
2022/03/15 06:03:14;;;;;;;10.75;4.88;;;6.50;95.50;;;;;;5201899;23;20056;-79
2022/03/15 06:05:40;;;;;;;9.45;5.13;;;6.50;95.40;;;;;;4912198;29;20036;-79
2022/03/15 06:08:09;;;;;;;11.80;4.65;;;6.50;95.30;;;;;;4911718;29;20099;-79
2022/03/15 06:10:47;;;;;;;12.93;5.18;;;6.50;95.30;;;;;;4912293;29;20034;-79
2022/03/15 06:13:13;;;;;;;9.77;4.50;;;6.60;95.10;;;;;;4911633;29;20032;-79
2022/03/15 06:15:39;;;;;;;9.13;4.43;;;6.60;95.00;;;;;;4929341;29;20385;-81
2022/03/15 06:18:05;;;;;;;9.10;4.50;;;6.60;94.90;;;;;;4929522;29;20019;-79
2022/03/15 06:20:33;;;;;;;12.57;5.05;;;6.70;94.90;;;;;;4914489;29;20309;-81
2022/03/15 06:22:59;;;;;;;11.23;4.75;;;6.70;94.70;;;;;;4912156;29;20024;-80
2022/03/15 06:25:28;;;;;;;11.80;4.50;;;6.80;94.60;;;;;;4912410;29;20039;-80
2022/03/15 06:31:42;;;;;;;12.00;5.07;;;6.90;94.20;;;;;;4933388;29;20035;-79
2022/03/15 06:35:05;;;;;;;10.25;4.97;;;6.90;94.10;;;;;;4921790;29;20142;-81
2022/03/15 07:17:15;;;;;;;12.40;5.90;;;7.50;92.80;;;;;;5943043;23;20023;31
2022/03/15 07:19:47;;;;;;;12.88;5.38;;;7.50;92.80;;;;;;4877947;29;20086;-79
2022/03/15 07:22:29;;;;;;;12.27;4.88;;;7.70;92.70;;;;;;4891315;29;20100;-79
2022/03/15 07:29:33;;;;;;;11.15;5.60;;;7.80;92.30;;;;;;4901117;29;20108;-81
2022/03/15 07:39:49;;;;;;;15.10;5.22;;;7.90;92.40;;;;;;4868669;29;20120;-80
2022/03/15 07:42:51;;;;;;;12.70;5.13;;;8.10;91.90;;;;;;4852677;29;20050;-78
2022/03/15 07:52:32;;;;;;;11.55;5.05;;;8.30;91.30;;;;;;4881233;29;20036;-79
2022/03/15 07:55:07;;;;;;;10.60;5.30;;;8.30;91.60;;;;;;4876912;29;20045;-79
2022/03/15 07:57:34;;;;;;;11.75;5.80;;;8.30;91.50;;;;;;4891342;29;20048;-80
2022/03/15 08:00:45;;;;;;;13.85;5.70;;;8.40;91.40;;;;;;4891264;29;20195;-81
2022/03/15 08:03:49;;;;;;;15.32;5.40;;;8.40;91.40;;;;;;4863996;29;20052;-81
2022/03/15 08:06:20;;;;;;;11.48;4.70;;;8.50;91.30;;;;;;4891568;29;20036;-80
2022/03/15 08:09:16;;;;;;;12.45;5.43;;;8.60;91.30;;;;;;4907371;29;20025;-80
2022/03/15 08:15:16;;;;;;;13.60;4.88;;;8.80;90.80;;;;;;4891580;29;20108;-80
2022/03/15 08:18:09;;;;;;;10.98;5.05;;;9.00;90.60;;;;;;4910052;29;20040;-81
2022/03/15 08:21:10;;;;;;;11.23;5.20;;;9.20;90.40;;;;;;4925844;29;20055;-79
2022/03/15 08:23:36;;;;;;;17.17;5.93;;;9.20;90.30;;;;;;4925440;29;20040;-78
2022/03/15 08:26:05;;;;;;;11.75;5.57;;;9.40;90.00;;;;;;4926230;29;20075;-79
2022/03/15 08:28:40;;;;;;;10.30;4.85;;;9.60;89.30;;;;;;4925653;29;20195;-79
2022/03/15 08:31:06;;;;;;;10.75;5.22;;;9.90;88.20;;;;;;4924740;29;20449;-78
2022/03/15 08:33:32;;;;;;;10.80;4.50;;;10.00;87.80;;;;;;4909618;29;20028;-78
2022/03/15 08:35:58;;;;;;;10.70;5.05;;;10.20;87.00;;;;;;4909336;29;20024;-79
2022/03/15 08:38:43;;;;;;;13.95;5.10;;;10.40;86.90;;;;;;4925093;29;20027;-78
2022/03/15 08:41:09;;;;;;;12.45;4.88;;;10.60;86.90;;;;;;4909387;29;20036;-78
2022/03/15 08:43:36;;;;;;;9.63;4.32;;;10.60;85.10;;;;;;4909584;29;20040;-79
2022/03/15 08:46:01;;;;;;;14.57;5.55;;;10.50;85.30;;;;;;4908781;29;20059;-78
2022/03/15 08:48:27;;;;;;;12.65;4.85;;;10.60;85.50;;;;;;4908986;29;20032;-78
2022/03/15 08:50:54;;;;;;;14.70;5.18;;;10.80;85.10;;;;;;4925391;29;20066;-77
2022/03/15 08:53:20;;;;;;;10.52;4.57;;;10.90;84.60;;;;;;4909013;29;20038;-78
2022/03/15 08:56:06;;;;;;;14.85;5.65;;;10.70;84.80;;;;;;4924349;29;20039;-78
2022/03/15 08:58:32;;;;;;;14.88;6.03;;;10.90;85.00;;;;;;4925902;29;20095;-78
2022/03/15 09:00:59;;;;;;;16.48;7.50;;;10.90;84.70;;;;;;4924213;29;20040;-78
2022/03/15 09:03:24;;;;;;;19.65;8.55;;;10.90;84.50;;;;;;4925415;29;20052;-77
2022/03/15 09:06:15;;;;;;;21.63;8.15;;;10.80;84.60;;;;;;4925835;29;20031;-78
2022/03/15 09:08:41;;;;;;;11.77;5.28;;;10.80;84.80;;;;;;4926322;29;20055;-79
2022/03/15 09:11:08;;;;;;;12.00;4.47;;;10.80;84.30;;;;;;4925429;29;20206;-78
2022/03/15 09:13:35;;;;;;;13.33;4.93;;;10.70;84.70;;;;;;4925759;29;20044;-78
2022/03/15 09:16:05;;;;;;;12.35;5.03;;;10.70;85.10;;;;;;4925271;29;20048;-79
2022/03/15 09:18:37;;;;;;;11.23;4.28;;;10.70;85.00;;;;;;4908753;29;20111;-79
2022/03/15 09:21:09;;;;;;;12.25;4.28;;;10.90;85.10;;;;;;4908456;29;20310;-80
2022/03/15 09:23:35;;;;;;;11.88;4.43;;;11.00;84.90;;;;;;4925697;29;20059;-79
2022/03/15 09:26:07;;;;;;;15.23;5.50;;;11.10;86.00;;;;;;4924632;29;20322;-79
2022/03/15 09:28:37;;;;;;;10.63;4.68;;;11.20;85.70;;;;;;4925455;29;20058;-79
2022/03/15 09:31:04;;;;;;;11.25;3.85;;;11.40;87.30;;;;;;4925451;29;20040;-80
2022/03/15 09:33:33;;;;;;;5.15;2.55;;;11.60;88.50;;;;;;4908899;29;20035;-80
2022/03/15 09:35:58;;;;;;;7.50;2.47;;;11.70;87.30;;;;;;4908973;29;20325;-79
2022/03/15 09:38:24;;;;;;;12.70;4.40;;;11.80;90.00;;;;;;4924041;29;20038;-80
2022/03/15 09:40:52;;;;;;;12.68;5.43;;;11.80;88.70;;;;;;4926116;29;20028;-80
2022/03/15 09:43:23;;;;;;;13.85;5.50;;;11.40;88.70;;;;;;4925724;29;20104;-79
2022/03/15 09:46:11;;;;;;;15.43;6.38;;;11.30;89.30;;;;;;4892880;29;20056;-79
2022/03/15 09:48:41;;;;;;;15.25;5.97;;;11.20;89.60;;;;;;4912121;29;20040;-79
2022/03/15 09:51:11;;;;;;;12.63;5.25;;;11.10;90.00;;;;;;4934144;29;20047;-79
2022/03/15 09:53:38;;;;;;;18.35;5.88;;;10.90;90.50;;;;;;4908937;29;20101;-81
2022/03/15 09:56:04;;;;;;;13.70;5.57;;;10.90;90.60;;;;;;4909146;29;20036;-79
2022/03/15 09:58:30;;;;;;;10.77;5.82;;;10.70;90.80;;;;;;4923455;29;20092;-80
2022/03/15 10:00:57;;;;;;;10.52;5.43;;;10.70;91.10;;;;;;4925264;29;20364;-80
2022/03/15 10:03:24;;;;;;;11.68;5.35;;;10.60;91.90;;;;;;4908340;29;20040;-79
2022/03/15 10:05:50;;;;;;;11.73;4.88;;;10.70;91.40;;;;;;4924785;29;20306;-77
2022/03/15 10:08:23;;;;;;;10.05;5.50;;;10.70;91.60;;;;;;4925335;29;20373;-80
2022/03/15 10:10:52;;;;;;;11.93;5.47;;;10.70;91.40;;;;;;4909237;29;20134;-80
2022/03/15 10:13:20;;;;;;;10.80;5.13;;;10.60;91.60;;;;;;4908256;29;20032;-79
2022/03/15 10:15:56;;;;;;;10.18;5.30;;;10.70;91.60;;;;;;4908477;29;20835;-79
2022/03/15 10:18:23;;;;;;;9.82;4.70;;;10.50;91.30;;;;;;4908534;29;20066;-79
2022/03/15 10:27:16;;;;;;;14.32;5.40;;;10.80;91.40;;;;;;4941489;29;20032;-80
2022/03/15 10:29:43;;;;;;;16.60;5.88;;;11.10;91.50;;;;;;5042074;23;20040;-80
2022/03/15 10:52:03;;;;;;;12.40;4.53;;;11.50;91.30;;;;;;4785051;30;20038;-79
2022/03/15 10:55:19;;;;;;;12.63;4.97;;;11.60;91.40;;;;;;4785501;30;20171;-80
2022/03/15 10:57:56;;;;;;;9.38;4.45;;;11.50;92.10;;;;;;4797099;29;20050;-79
2022/03/15 11:00:35;;;;;;;13.88;4.72;;;11.40;92.40;;;;;;4796206;29;20070;-80
2022/03/15 11:07:05;;;;;;;11.77;4.72;;;11.10;93.30;;;;;;4779036;30;20099;-80
2022/03/15 11:09:57;;;;;;;10.02;4.20;;;11.20;93.80;;;;;;4779373;30;20078;-80
2022/03/15 11:12:23;;;;;;;9.75;4.95;;;11.30;93.60;;;;;;4795610;29;20047;-80
2022/03/15 11:14:57;;;;;;;9.85;4.43;;;11.40;93.60;;;;;;4796760;29;20039;-81
2022/03/15 11:17:25;;;;;;;11.73;5.07;;;11.30;93.60;;;;;;4795830;29;20424;-81
2022/03/15 11:19:54;;;;;;;11.18;5.90;;;11.20;94.20;;;;;;4802474;29;20404;-80
2022/03/15 11:22:27;;;;;;;15.75;6.10;;;11.10;94.30;;;;;;4890029;29;20263;-80
2022/03/15 11:25:12;;;;;;;13.98;6.05;;;11.10;94.50;;;;;;4889520;29;20063;-80
2022/03/15 11:27:40;;;;;;;13.48;5.35;;;11.20;94.90;;;;;;4889125;29;20038;-79
2022/03/15 11:30:08;;;;;;;;;;;11.10;94.60;;;;;;4892535;29;20044;-79
2022/03/15 11:32:36;;;;;;;11.45;5.20;;;10.90;95.10;;;;;;4906991;29;20200;-79
2022/03/15 11:35:11;;;;;;;9.70;4.95;;;10.80;95.60;;;;;;4906889;29;20127;-78
2022/03/15 11:38:31;;;;;;;9.60;4.80;;;10.70;95.80;;;;;;4907579;29;20091;-77
2022/03/15 11:45:44;;;;;;;10.48;5.60;;;10.30;96.70;;;;;;4813513;29;20043;-78
2022/03/15 12:21:29;;;;;;;9.57;5.80;;;11.10;96.90;;;;;;4927248;29;20032;-80
2022/03/15 12:24:10;;;;;;;;;;;;;;;;;;;;;
2022/03/15 12:30:41;;;;;;;;;;;;;;;;;;;;;
2022/03/15 12:33:39;;;;;;;12.02;4.68;;;11.10;97.10;;;;;;4864677;29;20092;-80
2022/03/15 12:36:59;;;;;;;6.75;4.35;;;11.00;97.00;;;;;;4890543;29;20104;-80
2022/03/15 12:47:28;;;;;;;8.75;4.85;;;10.50;98.20;;;;;;4866421;29;20044;-81
2022/03/15 12:50:20;;;;;;;10.73;4.78;;;10.40;98.40;;;;;;4887865;29;20242;-79
2022/03/15 12:53:48;;;;;;;10.93;5.10;;;10.30;98.30;;;;;;4871675;29;20036;-81
2022/03/15 12:56:43;;;;;;;7.70;4.63;;;10.30;98.30;;;;;;4921802;29;20029;-80
2022/03/15 13:07:11;;;;;;;9.80;5.47;;;10.30;98.10;;;;;;4813018;29;20046;-79
2022/03/15 13:13:27;;;;;;;10.48;5.47;;;10.10;98.50;;;;;;4793396;29;20383;-78
2022/03/15 13:16:37;;;;;;;10.20;5.45;;;10.10;99.10;;;;;;4805821;29;20101;-78
2022/03/15 13:19:53;;;;;;;11.02;5.60;;;10.20;98.90;;;;;;4741473;30;20330;-79
2022/03/15 13:44:35;;;;;;;13.48;6.78;;;10.10;98.20;;;;;;4791495;29;20110;-79
2022/03/15 13:51:35;;;;;;;10.93;5.70;;;10.00;98.60;;;;;;4757161;29;20055;-80
2022/03/15 13:54:22;;;;;;;11.75;5.78;;;10.10;98.60;;;;;;4794720;30;20043;-78
2022/03/15 14:01:00;;;;;;;9.75;5.90;;;10.30;98.40;;;;;;4760822;30;20044;-78
2022/03/15 14:10:36;;;;;;;10.93;5.68;;;10.40;98.20;;;;;;4785189;30;20047;-78
2022/03/15 14:13:24;;;;;;;9.10;5.70;;;10.50;98.20;;;;;;4789845;29;20111;-78
2022/03/15 14:16:07;;;;;;;11.05;5.93;;;10.70;98.00;;;;;;5059924;23;20048;31
2022/03/15 14:18:34;;;;;;;9.32;5.72;;;10.80;97.80;;;;;;5201035;23;20026;-82
2022/03/15 18:25:21;;;;;;;13.43;8.18;;;9.70;99.90;;;;;;5687838;23;20113;-80
2022/03/15 18:27:53;;;;;;;11.45;7.60;;;9.70;99.90;;;;;;4965931;29;20213;-78
2022/03/15 18:53:40;;;;;;;12.52;8.48;;;9.60;99.90;;;;;;4940706;23;20052;-79
2022/03/15 18:56:48;;;;;;;13.50;7.90;;;9.60;99.90;;;;;;4873351;29;20115;-79
2022/03/15 19:00:01;;;;;;;;;;;;;;;;;;;;;
2022/03/15 19:11:08;;;;;;;15.10;9.80;;;9.60;99.90;;;;;;4812706;29;20038;-81
2022/03/15 19:14:35;;;;;;;;;;;9.50;99.90;;;;;;4815739;29;20384;-80
2022/03/15 22:02:57;;;;;;;23.17;17.73;;;9.30;99.90;;;;;;6003639;23;20022;31
